createdAt,value
2023-03-04T00:00:07.934Z,11.10
2023-03-04T00:02:35.801Z,10.60
2023-03-04T00:05:04.507Z,9.77
2023-03-04T00:07:34.371Z,10.23
2023-03-04T00:10:03.735Z,7.97
2023-03-04T00:12:31.681Z,9.67
2023-03-04T00:14:59.512Z,9.80
2023-03-04T00:17:29.952Z,11.77
2023-03-04T00:19:57.956Z,10.03
2023-03-04T00:22:25.923Z,9.83
2023-03-04T00:24:53.769Z,9.43
2023-03-04T00:27:23.032Z,9.80
2023-03-04T00:29:50.942Z,11.53
2023-03-04T00:32:19.336Z,10.60
2023-03-04T00:34:47.214Z,11.20
2023-03-04T00:37:15.170Z,10.50
2023-03-04T00:39:43.046Z,11.20
2023-03-04T00:42:11.007Z,10.73
2023-03-04T00:44:40.289Z,10.40
2023-03-04T00:47:08.267Z,12.07
2023-03-04T00:49:37.850Z,10.40
2023-03-04T00:52:05.761Z,10.23
2023-03-04T00:54:33.682Z,10.37
2023-03-04T00:57:01.531Z,10.27
2023-03-04T00:59:29.470Z,10.60
2023-03-04T01:01:58.634Z,11.17
2023-03-04T01:04:26.574Z,11.43
2023-03-04T01:06:54.876Z,11.27
2023-03-04T01:09:22.764Z,10.73
2023-03-04T01:11:50.605Z,10.70
2023-03-04T01:14:18.504Z,11.10
2023-03-04T01:16:46.734Z,12.03
2023-03-04T01:19:16.164Z,9.87
2023-03-04T01:21:44.056Z,11.90
2023-03-04T01:24:11.968Z,11.03
2023-03-04T01:26:39.838Z,12.40
2023-03-04T01:29:07.871Z,12.40
2023-03-04T01:31:35.738Z,11.67
2023-03-04T01:34:03.658Z,11.20
2023-03-04T01:36:32.876Z,12.30
2023-03-04T07:47:39.145Z,25.93
2023-03-04T12:29:33.081Z,35.93
2023-03-04T12:32:08.442Z,35.50
2023-03-04T12:34:59.092Z,36.27
2023-03-04T12:37:43.185Z,35.63
2023-03-04T12:40:34.344Z,35.13
2023-03-04T12:43:16.032Z,37.47
2023-03-04T12:45:50.392Z,38.63
2023-03-04T12:48:29.218Z,38.67
2023-03-04T12:51:16.094Z,35.50
2023-03-04T12:53:50.870Z,36.30
2023-03-04T14:15:27.372Z,32.43
2023-03-04T14:17:58.231Z,31.07
2023-03-04T14:20:28.411Z,31.93
2023-03-04T14:22:58.337Z,34.50
2023-03-04T14:25:29.269Z,35.33
2023-03-04T14:28:05.152Z,32.77
2023-03-04T14:30:42.656Z,35.37
2023-03-04T14:33:20.388Z,33.30
2023-03-04T14:35:50.048Z,32.80
2023-03-04T14:38:24.322Z,34.33
2023-03-04T14:40:54.383Z,33.60
2023-03-04T14:43:24.075Z,31.50
2023-03-04T14:45:55.044Z,32.30
2023-03-04T14:48:29.099Z,33.57
2023-03-04T14:50:59.775Z,35.47
2023-03-04T14:53:29.149Z,32.77
2023-03-04T14:55:59.403Z,32.53
2023-03-04T14:58:28.953Z,35.20
2023-03-04T15:01:15.352Z,34.50
2023-03-04T15:03:51.088Z,33.67
2023-03-04T15:06:21.732Z,33.77
2023-03-04T15:08:57.919Z,32.47
2023-03-04T15:11:28.472Z,31.73
2023-03-04T15:13:59.002Z,35.13
2023-03-04T15:16:30.694Z,38.23
2023-03-04T15:19:03.254Z,33.40
2023-03-04T15:21:36.991Z,33.33
2023-03-04T15:24:06.262Z,35.07
2023-03-04T15:26:35.740Z,35.10
2023-03-04T15:29:05.319Z,33.40
2023-03-04T15:31:33.250Z,33.33
2023-03-04T15:34:02.502Z,34.07
2023-03-04T15:36:30.416Z,30.13
2023-03-04T15:38:59.273Z,31.70
2023-03-04T15:41:28.243Z,27.77
2023-03-04T15:43:56.547Z,28.50
2023-03-04T15:46:24.579Z,27.40
2023-03-04T15:48:52.583Z,27.57
2023-03-04T15:51:23.477Z,29.57
2023-03-04T15:53:53.371Z,27.63
2023-03-04T15:56:23.681Z,31.10
2023-03-04T15:58:56.248Z,28.70
2023-03-04T16:01:24.848Z,27.40
2023-03-04T16:03:53.925Z,29.90
2023-03-04T16:06:25.753Z,28.37
2023-03-04T16:08:54.084Z,24.73
2023-03-04T16:11:23.768Z,26.67
2023-03-04T16:13:51.760Z,25.80
2023-03-04T16:16:20.109Z,26.30
2023-03-04T16:18:48.083Z,26.37
2023-03-04T16:21:18.422Z,26.30
2023-03-04T16:23:49.900Z,22.43
2023-03-04T16:26:20.998Z,21.10
2023-03-04T16:28:48.824Z,23.20
2023-03-04T16:31:17.721Z,22.80
2023-03-04T16:33:46.097Z,23.33
2023-03-04T16:36:16.763Z,24.13
2023-03-04T16:38:44.738Z,22.27
2023-03-04T16:41:15.782Z,20.73
2023-03-04T16:43:44.572Z,21.60
2023-03-04T16:46:13.635Z,22.13
2023-03-04T16:48:41.817Z,20.80
2023-03-04T16:51:14.991Z,22.50
2023-03-04T16:54:12.133Z,22.43
2023-03-04T16:56:46.391Z,20.93
2023-03-04T16:59:23.750Z,20.27
2023-03-04T17:01:56.909Z,21.53
2023-03-04T17:04:27.827Z,22.17
2023-03-04T19:42:14.687Z,19.20
2023-03-04T19:44:44.770Z,20.67
2023-03-04T19:47:13.306Z,17.87
2023-03-04T19:49:41.172Z,21.67
2023-03-04T20:38:18.190Z,14.83
2023-03-04T20:40:46.184Z,15.10
2023-03-04T20:43:17.152Z,16.20
2023-03-04T20:45:45.044Z,18.60
2023-03-04T20:48:12.998Z,16.27
2023-03-04T20:50:41.131Z,16.10
2023-03-04T20:53:09.099Z,19.37
2023-03-04T20:55:38.348Z,17.47
2023-03-04T20:58:07.637Z,16.47
2023-03-04T21:00:38.265Z,14.50
2023-03-04T21:03:06.205Z,14.77
2023-03-04T21:05:34.215Z,17.33
2023-03-04T21:08:02.149Z,15.87
2023-03-04T21:10:30.198Z,25.00
2023-03-04T21:12:59.517Z,15.03
2023-03-04T21:15:27.477Z,46.37
2023-03-04T21:17:55.569Z,26.43
2023-03-04T21:20:23.794Z,19.90
2023-03-04T21:22:51.681Z,16.43
2023-03-04T21:25:20.140Z,16.00
2023-03-04T21:27:48.078Z,16.50
2023-03-04T21:30:17.711Z,22.80
2023-03-04T21:32:45.789Z,15.87
2023-03-04T21:35:15.166Z,15.83
2023-03-04T21:37:43.096Z,15.67
2023-03-04T21:40:12.412Z,16.00
2023-03-04T21:42:40.613Z,15.23
2023-03-04T21:45:10.672Z,14.50
2023-03-04T21:47:41.478Z,15.00
2023-03-04T21:50:10.346Z,15.40
2023-03-04T21:52:38.279Z,14.57
2023-03-04T21:55:06.745Z,14.30
2023-03-04T21:57:34.868Z,14.67
2023-03-04T22:00:04.342Z,16.40
2023-03-04T22:02:33.517Z,14.33
2023-03-04T22:05:02.876Z,15.73
2023-03-04T22:07:30.831Z,13.13
2023-03-04T22:09:59.580Z,13.83
2023-03-04T22:12:27.486Z,13.67
2023-03-04T22:14:55.525Z,13.40
2023-03-04T22:17:23.590Z,13.87
2023-03-04T22:19:51.655Z,22.63
2023-03-04T22:22:21.189Z,14.40
2023-03-04T22:24:49.167Z,13.00
2023-03-04T22:27:17.498Z,14.10
2023-03-04T22:29:45.546Z,13.47
2023-03-04T22:32:13.943Z,13.83
2023-03-04T22:34:42.082Z,34.10
2023-03-04T22:37:10.271Z,14.63
2023-03-04T22:39:39.649Z,20.30
2023-03-04T22:42:07.951Z,12.10
2023-03-04T22:44:36.350Z,12.27
2023-03-04T22:47:04.360Z,11.23
2023-03-04T22:49:33.278Z,13.60
2023-03-04T22:52:01.886Z,13.10
2023-03-04T22:54:29.903Z,12.80
2023-03-04T22:56:59.257Z,12.30
2023-03-04T22:59:27.318Z,10.23
2023-03-04T23:01:55.690Z,11.20
2023-03-04T23:04:24.065Z,14.17
2023-03-04T23:06:52.058Z,12.37
2023-03-04T23:09:20.114Z,11.97
2023-03-04T23:11:49.486Z,11.93
2023-03-04T23:14:19.071Z,10.70
2023-03-04T23:16:47.452Z,13.10
2023-03-04T23:19:17.543Z,14.40
2023-03-04T23:21:45.846Z,11.27
2023-03-04T23:24:15.372Z,11.73
2023-03-04T23:26:44.294Z,10.67
2023-03-04T23:29:15.982Z,10.83
2023-03-04T23:31:45.342Z,11.60
2023-03-04T23:34:13.427Z,10.50
2023-03-04T23:36:41.941Z,10.30
2023-03-04T23:39:10.199Z,10.13
2023-03-04T23:41:38.957Z,8.70
2023-03-04T23:44:08.259Z,10.60
2023-03-04T23:46:37.608Z,11.40
2023-03-04T23:49:09.238Z,10.87
2023-03-04T23:51:38.413Z,10.60
2023-03-04T23:54:07.538Z,10.90
2023-03-04T23:56:36.314Z,11.90
2023-03-04T23:59:04.836Z,9.90
